createdAt,value
2022-08-25T00:00:05.611Z,1014.49
2022-08-25T00:01:07.490Z,1014.48
2022-08-25T00:02:05.557Z,1014.50
2022-08-25T00:03:05.586Z,1014.49
2022-08-25T00:04:05.528Z,1014.50
2022-08-25T00:05:05.527Z,1014.50
2022-08-25T00:06:05.564Z,1014.47
2022-08-25T00:07:05.454Z,1014.49
2022-08-25T00:08:06.661Z,1014.50
2022-08-25T00:09:05.443Z,1014.54
2022-08-25T00:10:05.461Z,1014.47
2022-08-25T00:11:05.369Z,1014.44
2022-08-25T00:12:06.924Z,1014.49
2022-08-25T00:13:05.369Z,1014.52
2022-08-25T00:14:05.404Z,1014.46
2022-08-25T00:15:05.337Z,1014.48
2022-08-25T00:16:05.340Z,1014.51
2022-08-25T00:17:05.305Z,1014.49
2022-08-25T00:18:05.748Z,1014.48
2022-08-25T00:19:06.328Z,1014.51
2022-08-25T00:20:05.326Z,1014.51
2022-08-25T00:21:05.359Z,1014.52
2022-08-25T00:22:05.236Z,1014.52
2022-08-25T00:23:05.295Z,1014.51
2022-08-25T00:24:05.226Z,1014.54
2022-08-25T00:25:06.708Z,1014.56
2022-08-25T00:26:05.189Z,1014.58
2022-08-25T00:27:05.181Z,1014.59
2022-08-25T00:28:08.498Z,1014.56
2022-08-25T00:29:05.168Z,1014.59
2022-08-25T00:30:05.411Z,1014.59
2022-08-25T00:31:05.226Z,1014.60
2022-08-25T00:32:05.109Z,1014.56
2022-08-25T00:33:05.208Z,1014.60
2022-08-25T00:34:05.079Z,1014.60
2022-08-25T00:35:05.079Z,1014.62
2022-08-25T00:36:05.063Z,1014.64
2022-08-25T00:37:05.074Z,1014.59
2022-08-25T00:38:05.223Z,1014.62
2022-08-25T00:39:05.011Z,1014.62
2022-08-25T00:40:05.152Z,1014.61
2022-08-25T00:41:05.038Z,1014.62
2022-08-25T00:42:05.005Z,1014.59
2022-08-25T00:43:06.124Z,1014.60
2022-08-25T00:44:05.062Z,1014.59
2022-08-25T00:45:04.951Z,1014.61
2022-08-25T00:46:04.972Z,1014.57
2022-08-25T00:47:04.924Z,1014.59
2022-08-25T00:48:05.078Z,1014.62
2022-08-25T00:49:04.927Z,1014.61
2022-08-25T00:50:06.259Z,1014.61
2022-08-25T00:51:04.965Z,1014.59
2022-08-25T00:52:04.897Z,1014.61
2022-08-25T00:53:04.847Z,1014.57
2022-08-25T00:54:04.866Z,1014.61
2022-08-25T00:55:08.027Z,1014.61
2022-08-25T00:56:04.824Z,1014.58
2022-08-25T00:57:04.863Z,1014.57
2022-08-25T00:58:04.963Z,1014.58
2022-08-25T00:59:04.765Z,1014.56
2022-08-25T01:00:04.767Z,1014.56
2022-08-25T01:01:04.773Z,1014.54
2022-08-25T01:02:04.880Z,1014.59
2022-08-25T01:03:06.194Z,1014.53
2022-08-25T01:04:04.715Z,1014.53
2022-08-25T01:05:04.671Z,1014.53
2022-08-25T01:06:04.651Z,1014.54
2022-08-25T01:07:04.647Z,1014.54
2022-08-25T01:08:06.675Z,1014.50
2022-08-25T01:09:04.672Z,1014.50
2022-08-25T01:10:04.670Z,1014.53
2022-08-25T01:11:04.683Z,1014.50
2022-08-25T01:12:05.071Z,1014.50
2022-08-25T01:13:04.593Z,1014.51
2022-08-25T01:14:04.711Z,1014.53
2022-08-25T01:15:04.552Z,1014.52
2022-08-25T01:16:05.592Z,1014.55
2022-08-25T01:17:04.568Z,1014.51
2022-08-25T01:18:04.726Z,1014.49
2022-08-25T01:19:04.483Z,1014.47
2022-08-25T01:20:04.518Z,1014.50
2022-08-25T01:21:04.493Z,1014.46
2022-08-25T01:22:04.566Z,1014.51
2022-08-25T01:23:04.435Z,1014.47
2022-08-25T01:24:05.206Z,1014.48
2022-08-25T01:25:04.456Z,1014.46
2022-08-25T01:26:04.438Z,1014.46
2022-08-25T01:27:04.448Z,1014.48
2022-08-25T01:28:04.707Z,1014.44
2022-08-25T01:29:04.365Z,1014.40
2022-08-25T01:30:04.357Z,1014.40
2022-08-25T01:31:04.391Z,1014.43
2022-08-25T01:32:05.374Z,1014.40
2022-08-25T01:33:04.366Z,1014.40
2022-08-25T01:34:04.405Z,1014.39
2022-08-25T01:35:04.347Z,1014.43
2022-08-25T01:36:04.298Z,1014.42
2022-08-25T01:37:04.367Z,1014.44
2022-08-25T01:38:04.491Z,1014.41
2022-08-25T01:39:04.255Z,1014.43
2022-08-25T01:40:04.261Z,1014.43
2022-08-25T01:41:04.238Z,1014.41
2022-08-25T01:42:04.249Z,1014.39
2022-08-25T01:43:04.226Z,1014.43
2022-08-25T01:44:04.192Z,1014.45
2022-08-25T01:45:04.169Z,1014.41
2022-08-25T01:46:04.190Z,1014.43
2022-08-25T01:47:04.131Z,1014.41
2022-08-25T01:48:05.098Z,1014.35
2022-08-25T01:49:06.828Z,1014.36
2022-08-25T01:50:04.335Z,1014.37
2022-08-25T01:51:04.125Z,1014.41
2022-08-25T01:52:04.074Z,1014.38
2022-08-25T01:53:04.073Z,1014.41
2022-08-25T01:54:04.883Z,1014.42
2022-08-25T01:55:04.282Z,1014.38
2022-08-25T01:56:05.502Z,1014.40
2022-08-25T01:57:04.088Z,1014.39
2022-08-25T01:58:04.182Z,1014.40
2022-08-25T01:59:03.975Z,1014.42
2022-08-25T02:00:04.031Z,1014.41
2022-08-25T02:01:04.044Z,1014.40
2022-08-25T02:02:04.851Z,1014.43
2022-08-25T02:03:04.241Z,1014.50
2022-08-25T02:04:04.960Z,1014.46
2022-08-25T02:05:03.977Z,1014.48
2022-08-25T02:06:04.217Z,1014.48
2022-08-25T02:07:03.955Z,1014.48
2022-08-25T02:08:04.120Z,1014.52
2022-08-25T02:09:03.865Z,1014.50
2022-08-25T02:10:03.857Z,1014.52
2022-08-25T02:11:03.818Z,1014.47
2022-08-25T02:12:03.825Z,1014.49
2022-08-25T02:13:03.800Z,1014.47
2022-08-25T02:14:03.780Z,1014.47
2022-08-25T02:15:04.912Z,1014.48
2022-08-25T02:16:03.760Z,1014.48
2022-08-25T02:17:03.830Z,1014.45
2022-08-25T02:18:03.789Z,1014.46
2022-08-25T02:19:03.747Z,1014.44
2022-08-25T02:20:03.762Z,1014.42
2022-08-25T02:21:03.724Z,1014.43
2022-08-25T02:22:03.694Z,1014.42
2022-08-25T02:23:03.670Z,1014.41
2022-08-25T02:24:03.686Z,1014.39
2022-08-25T02:25:03.643Z,1014.40
2022-08-25T02:26:03.643Z,1014.40
2022-08-25T02:27:03.615Z,1014.37
2022-08-25T02:28:04.874Z,1014.39
2022-08-25T02:29:03.614Z,1014.39
2022-08-25T02:30:03.645Z,1014.37
2022-08-25T02:31:03.580Z,1014.38
2022-08-25T02:32:04.815Z,1014.38
2022-08-25T02:33:03.554Z,1014.38
2022-08-25T02:34:03.572Z,1014.38
2022-08-25T02:35:03.543Z,1014.37
2022-08-25T02:36:03.549Z,1014.37
2022-08-25T02:37:03.495Z,1014.36
2022-08-25T02:38:03.529Z,1014.36
2022-08-25T02:39:04.138Z,1014.34
2022-08-25T02:40:03.548Z,1014.35
2022-08-25T02:41:03.446Z,1014.31
2022-08-25T02:42:03.417Z,1014.30
2022-08-25T02:43:03.479Z,1014.30
2022-08-25T02:44:03.421Z,1014.25
2022-08-25T02:45:03.530Z,1014.27
2022-08-25T02:46:03.442Z,1014.22
2022-08-25T02:47:03.357Z,1014.21
2022-08-25T02:48:03.382Z,1014.25
2022-08-25T02:49:03.393Z,1014.23
2022-08-25T02:50:03.412Z,1014.19
2022-08-25T02:51:03.301Z,1014.20
2022-08-25T02:52:14.314Z,1014.18
2022-08-25T02:53:03.846Z,1014.18
2022-08-25T02:54:09.300Z,1014.20
2022-08-25T02:55:03.249Z,1014.19
2022-08-25T02:56:03.257Z,1014.18
2022-08-25T02:57:03.269Z,1014.21
2022-08-25T02:58:03.257Z,1014.19
2022-08-25T02:59:03.272Z,1014.19
2022-08-25T03:00:03.235Z,1014.22
2022-08-25T03:01:03.333Z,1014.17
2022-08-25T03:02:03.176Z,1014.22
2022-08-25T03:03:03.193Z,1014.25
2022-08-25T03:04:03.186Z,1014.25
2022-08-25T03:05:03.175Z,1014.24
2022-08-25T03:06:07.149Z,1014.24
2022-08-25T03:07:08.046Z,1014.23
2022-08-25T03:08:23.225Z,1014.26
2022-08-25T03:09:10.382Z,1014.23
2022-08-25T03:10:08.031Z,1014.24
2022-08-25T03:11:11.841Z,1014.19
2022-08-25T03:12:10.947Z,1014.20
2022-08-25T03:13:03.755Z,1014.19
2022-08-25T03:14:25.923Z,1014.19
2022-08-25T03:15:05.252Z,1014.18
2022-08-25T03:16:18.965Z,1014.22
2022-08-25T03:17:04.029Z,1014.20
2022-08-25T03:18:09.841Z,1014.14
2022-08-25T03:19:16.167Z,1014.16
2022-08-25T03:20:09.553Z,1014.15
2022-08-25T03:21:02.938Z,1014.13
2022-08-25T03:22:03.023Z,1014.13
2022-08-25T03:23:03.069Z,1014.12
2022-08-25T03:24:02.897Z,1014.12
2022-08-25T03:25:02.883Z,1014.08
2022-08-25T03:26:02.934Z,1014.15
2022-08-25T03:27:02.841Z,1014.16
2022-08-25T03:28:02.928Z,1014.14
2022-08-25T03:29:02.832Z,1014.13
2022-08-25T03:30:02.828Z,1014.17
2022-08-25T03:31:02.834Z,1014.13
2022-08-25T03:32:02.832Z,1014.16
2022-08-25T03:33:02.784Z,1014.11
2022-08-25T03:34:02.821Z,1014.13
2022-08-25T03:35:02.751Z,1014.10
2022-08-25T03:36:02.746Z,1014.07
2022-08-25T03:37:02.703Z,1014.08
2022-08-25T03:38:02.696Z,1014.09
2022-08-25T03:39:02.737Z,1014.08
2022-08-25T03:40:02.723Z,1014.06
2022-08-25T03:41:02.646Z,1014.12
2022-08-25T03:42:02.755Z,1014.12
2022-08-25T03:43:02.637Z,1014.09
2022-08-25T03:44:02.635Z,1014.05
2022-08-25T03:45:02.615Z,1014.05
2022-08-25T03:46:02.714Z,1014.05
2022-08-25T03:47:02.606Z,1014.03
2022-08-25T03:48:02.561Z,1014.07
2022-08-25T03:49:02.587Z,1014.11
2022-08-25T03:50:02.547Z,1014.02
2022-08-25T03:51:02.600Z,1014.03
2022-08-25T03:52:02.539Z,1014.02
2022-08-25T03:53:02.489Z,1014.01
2022-08-25T03:54:02.527Z,1014.01
2022-08-25T03:55:02.468Z,1014.04
2022-08-25T03:56:02.498Z,1014.03
2022-08-25T03:57:03.311Z,1014.05
2022-08-25T03:58:02.618Z,1014.02
2022-08-25T03:59:02.803Z,1014.03
2022-08-25T04:00:02.417Z,1014.02
2022-08-25T04:01:02.429Z,1014.03
2022-08-25T04:02:02.457Z,1014.05
2022-08-25T04:03:02.410Z,1014.05
2022-08-25T04:04:02.354Z,1014.01
2022-08-25T04:05:02.350Z,1014.07
2022-08-25T04:06:02.322Z,1014.06
2022-08-25T04:07:02.312Z,1014.05
2022-08-25T04:08:02.441Z,1014.10
2022-08-25T04:09:02.294Z,1014.10
2022-08-25T04:10:02.301Z,1014.12
2022-08-25T04:11:02.298Z,1014.13
2022-08-25T04:12:02.276Z,1014.16
2022-08-25T04:13:02.286Z,1014.17
2022-08-25T04:14:02.353Z,1014.15
2022-08-25T04:15:02.251Z,1014.18
2022-08-25T04:16:02.195Z,1014.14
2022-08-25T04:17:16.067Z,1014.16
2022-08-25T04:18:05.965Z,1014.19
2022-08-25T04:19:02.342Z,1014.20
2022-08-25T04:20:28.964Z,1014.20
2022-08-25T04:21:05.222Z,1014.25
2022-08-25T04:22:07.809Z,1014.27
2022-08-25T04:23:03.575Z,1014.26
2022-08-25T04:24:02.114Z,1014.27
2022-08-25T04:25:02.088Z,1014.24
2022-08-25T04:26:02.230Z,1014.27
2022-08-25T04:27:02.116Z,1014.26
2022-08-25T04:28:02.110Z,1014.23
2022-08-25T04:29:02.061Z,1014.24
2022-08-25T04:30:02.049Z,1014.25
2022-08-25T04:31:01.990Z,1014.27
2022-08-25T04:32:02.098Z,1014.23
2022-08-25T04:33:01.994Z,1014.26
2022-08-25T04:34:01.957Z,1014.23
2022-08-25T04:35:02.762Z,1014.26
2022-08-25T04:36:02.039Z,1014.24
2022-08-25T04:37:02.012Z,1014.26
2022-08-25T04:38:02.028Z,1014.25
2022-08-25T04:39:02.062Z,1014.29
2022-08-25T04:40:01.993Z,1014.24
2022-08-25T04:41:01.864Z,1014.24
2022-08-25T04:42:01.987Z,1014.26
2022-08-25T04:43:01.851Z,1014.25
2022-08-25T04:44:01.839Z,1014.21
2022-08-25T04:45:01.891Z,1014.24
2022-08-25T04:46:01.976Z,1014.23
2022-08-25T04:47:01.884Z,1014.18
2022-08-25T04:48:02.428Z,1014.21
2022-08-25T04:49:01.770Z,1014.24
2022-08-25T04:50:01.787Z,1014.18
2022-08-25T04:51:01.740Z,1014.20
2022-08-25T04:52:01.945Z,1014.16
2022-08-25T04:53:01.756Z,1014.15
2022-08-25T04:54:01.704Z,1014.15
2022-08-25T04:55:01.726Z,1014.16
2022-08-25T04:56:03.888Z,1014.18
2022-08-25T04:57:08.310Z,1014.15
2022-08-25T04:58:01.666Z,1014.13
2022-08-25T04:59:01.699Z,1014.13
2022-08-25T05:00:01.639Z,1014.11
2022-08-25T05:01:01.881Z,1014.07
2022-08-25T05:02:01.595Z,1014.08
2022-08-25T05:03:01.659Z,1014.05
2022-08-25T05:04:01.655Z,1014.09
2022-08-25T05:05:01.569Z,1014.09
2022-08-25T05:06:01.544Z,1014.07
2022-08-25T05:07:01.558Z,1014.09
2022-08-25T05:08:01.520Z,1014.09
2022-08-25T05:09:01.572Z,1014.10
2022-08-25T05:10:01.543Z,1014.06
2022-08-25T05:11:01.521Z,1014.05
2022-08-25T05:12:01.485Z,1014.06
2022-08-25T05:13:01.515Z,1014.02
2022-08-25T05:14:01.503Z,1014.06
2022-08-25T05:15:01.662Z,1014.05
2022-08-25T05:16:01.525Z,1014.04
2022-08-25T05:17:01.403Z,1014.08
2022-08-25T05:18:01.442Z,1014.01
2022-08-25T05:19:01.487Z,1014.01
2022-08-25T05:20:01.366Z,1014.02
2022-08-25T05:21:02.004Z,1014.00
2022-08-25T05:22:01.358Z,1014.05
2022-08-25T05:23:01.327Z,1014.04
2022-08-25T05:24:01.566Z,1014.11
2022-08-25T05:25:01.301Z,1014.09
2022-08-25T05:26:01.343Z,1014.09
2022-08-25T05:27:01.286Z,1014.11
2022-08-25T05:28:01.286Z,1014.14
2022-08-25T05:29:01.297Z,1014.15
2022-08-25T05:30:01.324Z,1014.11
2022-08-25T05:31:01.235Z,1014.16
2022-08-25T05:32:01.292Z,1014.17
2022-08-25T05:33:04.921Z,1014.16
2022-08-25T05:34:01.210Z,1014.13
2022-08-25T05:35:01.212Z,1014.16
2022-08-25T05:36:01.218Z,1014.12
2022-08-25T05:37:01.156Z,1014.12
2022-08-25T05:38:01.134Z,1014.16
2022-08-25T05:39:01.131Z,1014.21
2022-08-25T05:40:01.202Z,1014.15
2022-08-25T05:41:01.121Z,1014.20
2022-08-25T05:42:01.105Z,1014.18
2022-08-25T05:43:01.290Z,1014.19
2022-08-25T05:44:01.096Z,1014.20
2022-08-25T05:45:01.060Z,1014.21
2022-08-25T05:46:01.237Z,1014.20
2022-08-25T05:47:01.047Z,1014.17
2022-08-25T05:48:01.011Z,1014.21
2022-08-25T05:49:00.993Z,1014.22
2022-08-25T05:50:01.000Z,1014.14
2022-08-25T05:51:01.005Z,1014.20
2022-08-25T05:52:00.991Z,1014.14
2022-08-25T05:53:00.939Z,1014.16
2022-08-25T05:54:00.973Z,1014.14
2022-08-25T05:55:00.945Z,1014.16
2022-08-25T05:56:02.395Z,1014.13
2022-08-25T05:57:00.881Z,1014.16
2022-08-25T05:58:00.900Z,1014.09
2022-08-25T05:59:00.877Z,1014.11
2022-08-25T06:00:00.846Z,1014.11
2022-08-25T06:01:00.839Z,1014.08
2022-08-25T06:02:00.897Z,1014.05
2022-08-25T06:03:00.800Z,1014.08
2022-08-25T06:04:02.780Z,1014.05
2022-08-25T06:05:00.843Z,1014.09
2022-08-25T06:06:00.819Z,1014.07
2022-08-25T06:07:00.798Z,1014.06
2022-08-25T06:08:05.890Z,1014.04
2022-08-25T06:09:01.629Z,1014.08
2022-08-25T06:10:00.751Z,1014.12
2022-08-25T06:11:00.713Z,1014.11
2022-08-25T06:12:00.769Z,1014.08
2022-08-25T06:13:00.676Z,1014.11
2022-08-25T06:14:00.698Z,1014.06
2022-08-25T06:15:00.639Z,1014.09
2022-08-25T06:16:00.730Z,1014.12
2022-08-25T06:17:01.699Z,1014.14
2022-08-25T06:18:01.760Z,1014.10
2022-08-25T06:19:00.661Z,1014.07
2022-08-25T06:20:00.611Z,1014.08
2022-08-25T06:21:04.235Z,1014.06
2022-08-25T06:22:00.680Z,1014.03
2022-08-25T06:23:00.552Z,1014.01
2022-08-25T06:24:00.603Z,1013.96
2022-08-25T06:25:00.556Z,1013.94
2022-08-25T06:26:00.644Z,1014.01
2022-08-25T06:27:00.521Z,1013.95
2022-08-25T06:28:00.500Z,1013.96
2022-08-25T06:29:00.463Z,1013.91
2022-08-25T06:30:00.504Z,1013.93
2022-08-25T06:31:01.515Z,1013.94
2022-08-25T06:32:00.425Z,1013.94
2022-08-25T06:33:04.485Z,1013.93
2022-08-25T06:34:00.871Z,1013.98
2022-08-25T06:35:00.440Z,1013.97
2022-08-25T06:36:00.380Z,1013.97
2022-08-25T06:37:00.390Z,1013.98
2022-08-25T06:38:00.478Z,1013.99
2022-08-25T06:39:00.385Z,1013.95
2022-08-25T06:40:00.442Z,1013.99
2022-08-25T06:41:00.372Z,1014.00
2022-08-25T06:42:00.299Z,1013.95
2022-08-25T06:43:01.193Z,1013.95
2022-08-25T06:44:04.929Z,1013.92
2022-08-25T06:45:06.796Z,1013.93
2022-08-25T06:46:01.291Z,1013.93
2022-08-25T06:47:04.219Z,1013.94
2022-08-25T06:48:04.131Z,1013.95
2022-08-25T06:49:09.981Z,1013.95
2022-08-25T06:50:02.824Z,1014.02
2022-08-25T06:51:00.293Z,1014.03
2022-08-25T06:52:00.257Z,1014.05
2022-08-25T06:53:00.230Z,1014.04
2022-08-25T06:54:00.157Z,1014.03
2022-08-25T06:55:00.125Z,1014.00
2022-08-25T06:56:04.531Z,1014.01
2022-08-25T06:57:01.107Z,1014.04
2022-08-25T06:58:00.191Z,1014.04
2022-08-25T06:59:00.101Z,1014.02
2022-08-25T07:00:00.087Z,1014.06
2022-08-25T07:01:00.123Z,1014.09
2022-08-25T07:02:00.171Z,1014.06
2022-08-25T07:03:00.097Z,1014.06
2022-08-25T07:04:00.037Z,1014.09
2022-08-25T07:05:00.007Z,1014.07
2022-08-25T07:06:00.027Z,1014.01
2022-08-25T07:07:00.062Z,1014.01
2022-08-25T07:08:00.022Z,1013.93
2022-08-25T07:08:59.992Z,1013.92
2022-08-25T07:10:00.012Z,1013.88
2022-08-25T07:10:59.955Z,1013.89
2022-08-25T07:12:00.167Z,1013.91
2022-08-25T07:12:59.978Z,1013.96
2022-08-25T07:15:28.659Z,1013.91
2022-08-25T07:16:14.919Z,1013.93
2022-08-25T07:17:12.702Z,1013.91
2022-08-25T07:18:11.026Z,1013.89
2022-08-25T07:19:11.004Z,1013.86
2022-08-25T07:20:13.878Z,1013.88
2022-08-25T07:21:10.940Z,1013.88
2022-08-25T07:22:10.920Z,1013.87
2022-08-25T07:23:11.693Z,1013.84
2022-08-25T07:24:10.964Z,1013.84
2022-08-25T07:25:10.961Z,1013.85
2022-08-25T07:26:33.693Z,1013.87
2022-08-25T07:27:11.908Z,1013.86
2022-08-25T07:28:10.864Z,1013.88
2022-08-25T07:29:10.886Z,1013.87
2022-08-25T07:30:11.381Z,1013.88
2022-08-25T07:31:11.042Z,1013.85
2022-08-25T07:32:10.879Z,1013.90
2022-08-25T07:33:11.127Z,1013.89
2022-08-25T07:34:10.778Z,1013.91
2022-08-25T07:35:10.787Z,1013.92
2022-08-25T07:36:10.797Z,1013.95
2022-08-25T07:37:10.747Z,1013.94
2022-08-25T07:38:13.073Z,1013.89
2022-08-25T07:39:11.800Z,1013.86
2022-08-25T07:40:10.828Z,1013.86
2022-08-25T07:41:34.631Z,1013.84
2022-08-25T07:42:14.734Z,1013.87
2022-08-25T07:43:18.422Z,1013.91
2022-08-25T07:44:11.583Z,1013.87
2022-08-25T07:45:12.733Z,1013.89
2022-08-25T07:46:12.029Z,1013.90
2022-08-25T07:47:25.221Z,1013.87
2022-08-25T07:48:18.872Z,1013.88
2022-08-25T07:49:16.818Z,1013.85
2022-08-25T07:50:13.803Z,1013.85
2022-08-25T07:51:10.593Z,1013.88
2022-08-25T07:52:10.619Z,1013.89
2022-08-25T07:53:10.838Z,1013.91
2022-08-25T07:54:10.514Z,1013.93
2022-08-25T07:55:10.923Z,1013.88
2022-08-25T07:56:10.469Z,1013.90
2022-08-25T07:57:10.457Z,1013.88
2022-08-25T07:58:10.513Z,1013.86
2022-08-25T07:59:12.561Z,1013.89
2022-08-25T08:00:10.494Z,1013.88
2022-08-25T08:01:11.309Z,1013.94
2022-08-25T08:02:18.544Z,1013.90
2022-08-25T08:03:35.187Z,1013.88
2022-08-25T08:04:12.162Z,1013.87
2022-08-25T08:05:13.423Z,1013.90
2022-08-25T08:06:10.460Z,1013.91
2022-08-25T08:07:12.129Z,1013.92
2022-08-25T08:08:11.468Z,1013.92
2022-08-25T08:09:10.337Z,1013.95
2022-08-25T08:11:11.292Z,1013.99
2022-08-25T08:12:10.264Z,1013.97
2022-08-25T08:13:10.589Z,1013.94
2022-08-25T08:14:11.434Z,1013.94
2022-08-25T08:15:10.781Z,1014.00
2022-08-25T08:16:13.168Z,1013.96
2022-08-25T08:17:12.071Z,1013.95
2022-08-25T08:18:13.347Z,1013.97
2022-08-25T08:19:13.022Z,1013.98
2022-08-25T08:20:11.826Z,1013.99
2022-08-25T08:21:11.642Z,1013.91
2022-08-25T08:22:10.163Z,1013.91
2022-08-25T08:23:10.136Z,1013.86
2022-08-25T08:24:25.038Z,1013.86
2022-08-25T08:25:11.183Z,1013.89
2022-08-25T08:26:11.178Z,1013.84
2022-08-25T08:27:10.107Z,1013.86
2022-08-25T08:28:11.093Z,1013.86
2022-08-25T08:29:10.058Z,1013.88
2022-08-25T08:30:10.056Z,1013.89
2022-08-25T08:31:10.930Z,1013.90
2022-08-25T08:32:10.038Z,1013.89
2022-08-25T08:33:11.625Z,1013.90
2022-08-25T08:34:09.995Z,1013.92
2022-08-25T08:35:09.971Z,1013.91
2022-08-25T08:36:09.978Z,1013.88
2022-08-25T08:37:10.525Z,1013.86
2022-08-25T08:38:16.197Z,1013.86
2022-08-25T08:39:10.907Z,1013.84
2022-08-25T08:40:10.673Z,1013.81
2022-08-25T08:41:09.934Z,1013.80
2022-08-25T08:42:11.808Z,1013.78
2022-08-25T08:43:18.016Z,1013.76
2022-08-25T08:44:10.867Z,1013.80
2022-08-25T08:45:10.517Z,1013.80
2022-08-25T08:46:26.087Z,1013.84
2022-08-25T08:47:10.490Z,1013.79
2022-08-25T08:48:10.884Z,1013.77
2022-08-25T08:49:10.514Z,1013.77
2022-08-25T08:50:19.998Z,1013.84
2022-08-25T08:51:39.868Z,1013.78
2022-08-25T08:52:09.874Z,1013.82
2022-08-25T08:53:13.455Z,1013.84
2022-08-25T08:54:14.990Z,1013.79
2022-08-25T08:55:10.860Z,1013.82
2022-08-25T08:56:11.783Z,1013.76
2022-08-25T08:57:11.218Z,1013.83
2022-08-25T08:58:10.759Z,1013.83
2022-08-25T08:59:09.823Z,1013.81
2022-08-25T09:00:09.677Z,1013.79
2022-08-25T09:01:09.659Z,1013.76
2022-08-25T09:02:13.714Z,1013.80
2022-08-25T09:03:09.640Z,1013.76
2022-08-25T09:04:09.620Z,1013.74
2022-08-25T09:05:10.612Z,1013.78
2022-08-25T09:06:09.579Z,1013.75
2022-08-25T09:07:12.220Z,1013.74
2022-08-25T09:08:12.073Z,1013.73
2022-08-25T09:09:10.615Z,1013.67
2022-08-25T09:10:11.598Z,1013.71
2022-08-25T09:11:10.354Z,1013.75
2022-08-25T09:12:10.392Z,1013.70
2022-08-25T09:13:13.314Z,1013.65
2022-08-25T09:14:09.617Z,1013.66
2022-08-25T09:15:12.835Z,1013.66
2022-08-25T09:16:20.610Z,1013.63
2022-08-25T09:17:10.424Z,1013.60
2022-08-25T09:18:11.876Z,1013.57
2022-08-25T09:19:09.447Z,1013.59
2022-08-25T09:20:18.878Z,1013.58
2022-08-25T09:21:10.361Z,1013.56
2022-08-25T09:22:33.462Z,1013.52
2022-08-25T09:23:10.387Z,1013.56
2022-08-25T09:24:09.343Z,1013.57
2022-08-25T09:25:09.303Z,1013.56
2022-08-25T09:26:09.394Z,1013.52
2022-08-25T09:27:09.310Z,1013.53
2022-08-25T09:28:10.251Z,1013.59
2022-08-25T09:29:16.285Z,1013.59
2022-08-25T09:30:12.088Z,1013.60
2022-08-25T09:31:13.273Z,1013.60
2022-08-25T09:32:10.073Z,1013.61
2022-08-25T09:33:11.588Z,1013.55
2022-08-25T09:34:09.250Z,1013.57
2022-08-25T09:35:09.242Z,1013.56
2022-08-25T09:36:09.280Z,1013.57
2022-08-25T09:37:09.227Z,1013.55
2022-08-25T09:38:09.186Z,1013.54
2022-08-25T09:39:09.998Z,1013.50
2022-08-25T09:40:09.225Z,1013.50
2022-08-25T09:41:09.110Z,1013.53
2022-08-25T09:42:09.089Z,1013.53
2022-08-25T09:43:09.138Z,1013.51
2022-08-25T09:44:09.096Z,1013.55
2022-08-25T09:45:09.983Z,1013.56
2022-08-25T09:46:31.724Z,1013.53
2022-08-25T09:47:10.972Z,1013.53
2022-08-25T09:48:09.474Z,1013.48
2022-08-25T09:49:09.044Z,1013.54
2022-08-25T09:50:18.425Z,1013.54
2022-08-25T09:51:12.458Z,1013.50
2022-08-25T09:52:12.793Z,1013.52
2022-08-25T09:53:18.722Z,1013.49
2022-08-25T09:54:10.964Z,1013.47
2022-08-25T09:55:10.066Z,1013.50
2022-08-25T09:56:14.615Z,1013.46
2022-08-25T09:57:09.065Z,1013.48
2022-08-25T09:58:16.636Z,1013.50
2022-08-25T09:59:15.566Z,1013.52
2022-08-25T10:00:13.554Z,1013.49
2022-08-25T10:01:18.320Z,1013.46
2022-08-25T10:02:08.932Z,1013.43
2022-08-25T10:03:08.967Z,1013.39
2022-08-25T10:04:17.738Z,1013.34
2022-08-25T10:05:09.870Z,1013.38
2022-08-25T10:06:13.293Z,1013.36
2022-08-25T10:07:08.790Z,1013.36
2022-08-25T10:08:08.834Z,1013.39
2022-08-25T10:09:09.611Z,1013.37
2022-08-25T10:10:10.054Z,1013.36
2022-08-25T10:11:09.067Z,1013.39
2022-08-25T10:12:08.763Z,1013.36
2022-08-25T10:13:08.958Z,1013.37
2022-08-25T10:14:08.740Z,1013.36
2022-08-25T10:15:08.757Z,1013.34
2022-08-25T10:16:20.572Z,1013.31
2022-08-25T10:17:09.656Z,1013.29
2022-08-25T10:18:08.774Z,1013.22
2022-08-25T10:19:08.675Z,1013.19
2022-08-25T10:20:08.636Z,1013.27
2022-08-25T10:21:08.593Z,1013.26
2022-08-25T10:22:09.198Z,1013.21
2022-08-25T10:23:08.557Z,1013.23
2022-08-25T10:24:08.593Z,1013.19
2022-08-25T10:25:08.639Z,1013.19
2022-08-25T10:26:11.214Z,1013.15
2022-08-25T10:27:08.507Z,1013.13
2022-08-25T10:28:11.086Z,1013.13
2022-08-25T10:29:15.620Z,1013.10
2022-08-25T10:30:10.773Z,1013.12
2022-08-25T10:31:09.634Z,1013.11
2022-08-25T10:32:12.038Z,1013.04
2022-08-25T10:33:13.935Z,1013.02
2022-08-25T10:34:10.686Z,1013.03
2022-08-25T10:35:08.417Z,1013.02
2022-08-25T10:36:09.246Z,1012.97
2022-08-25T10:37:09.317Z,1012.94
2022-08-25T10:38:10.365Z,1012.92
2022-08-25T10:39:36.311Z,1012.91
2022-08-25T10:40:09.513Z,1012.93
2022-08-25T10:41:08.353Z,1012.91
2022-08-25T10:42:08.352Z,1012.84
2022-08-25T10:43:08.734Z,1012.82
2022-08-25T10:44:08.326Z,1012.84
2022-08-25T10:45:08.270Z,1012.84
2022-08-25T10:46:08.349Z,1012.80
2022-08-25T10:47:09.420Z,1012.77
2022-08-25T10:48:08.286Z,1012.82
2022-08-25T10:49:09.215Z,1012.76
2022-08-25T10:50:08.247Z,1012.78
2022-08-25T10:51:16.134Z,1012.77
2022-08-25T10:52:09.246Z,1012.75
2022-08-25T10:53:12.815Z,1012.79
2022-08-25T10:54:36.386Z,1012.77
2022-08-25T10:55:09.648Z,1012.80
2022-08-25T10:56:10.578Z,1012.79
2022-08-25T10:57:11.028Z,1012.73
2022-08-25T10:58:10.657Z,1012.72
2022-08-25T10:59:15.842Z,1012.72
2022-08-25T11:00:09.996Z,1012.68
2022-08-25T11:01:08.474Z,1012.72
2022-08-25T11:02:08.102Z,1012.72
2022-08-25T11:03:08.288Z,1012.60
2022-08-25T11:04:08.983Z,1012.54
2022-08-25T11:05:08.064Z,1012.57
2022-08-25T11:06:08.043Z,1012.58
2022-08-25T11:07:08.015Z,1012.54
2022-08-25T11:08:07.978Z,1012.49
2022-08-25T11:09:07.963Z,1012.48
2022-08-25T11:10:08.027Z,1012.52
2022-08-25T11:11:07.982Z,1012.48
2022-08-25T11:12:07.923Z,1012.48
2022-08-25T11:13:12.560Z,1012.45
2022-08-25T11:14:32.643Z,1012.40
2022-08-25T11:15:08.972Z,1012.47
2022-08-25T11:16:23.219Z,1012.46
2022-08-25T11:17:09.938Z,1012.48
2022-08-25T11:18:14.398Z,1012.50
2022-08-25T11:19:08.845Z,1012.45
2022-08-25T11:20:07.843Z,1012.43
2022-08-25T11:21:08.820Z,1012.40
2022-08-25T11:22:07.793Z,1012.46
2022-08-25T11:23:07.940Z,1012.43
2022-08-25T11:24:07.791Z,1012.40
2022-08-25T11:25:07.870Z,1012.40
2022-08-25T11:26:09.949Z,1012.41
2022-08-25T11:27:13.669Z,1012.37
2022-08-25T11:28:11.469Z,1012.38
2022-08-25T11:29:12.020Z,1012.31
2022-08-25T11:30:11.890Z,1012.33
2022-08-25T11:31:09.515Z,1012.32
2022-08-25T11:32:12.197Z,1012.28
2022-08-25T11:33:12.967Z,1012.28
2022-08-25T11:34:10.673Z,1012.22
2022-08-25T11:35:20.231Z,1012.21
2022-08-25T11:36:17.470Z,1012.21
2022-08-25T11:37:15.214Z,1012.24
2022-08-25T11:38:08.032Z,1012.22
2022-08-25T11:39:07.735Z,1012.26
2022-08-25T11:40:29.978Z,1012.26
2022-08-25T11:41:11.425Z,1012.32
2022-08-25T11:42:07.551Z,1012.30
2022-08-25T11:43:08.275Z,1012.31
2022-08-25T11:44:07.578Z,1012.28
2022-08-25T11:45:07.518Z,1012.25
2022-08-25T11:46:07.570Z,1012.24
2022-08-25T11:47:07.501Z,1012.19
2022-08-25T11:48:08.480Z,1012.20
2022-08-25T11:49:07.584Z,1012.14
2022-08-25T11:50:07.479Z,1012.12
2022-08-25T11:51:07.431Z,1012.13
2022-08-25T11:52:07.438Z,1012.11
2022-08-25T11:53:07.435Z,1012.09
2022-08-25T11:54:07.411Z,1012.07
2022-08-25T11:55:07.443Z,1012.02
2022-08-25T11:56:07.359Z,1012.03
2022-08-25T11:57:07.416Z,1012.07
2022-08-25T11:58:08.756Z,1012.05
2022-08-25T11:59:07.357Z,1012.06
2022-08-25T12:00:07.376Z,1012.07
2022-08-25T12:01:07.357Z,1012.05
2022-08-25T12:02:07.277Z,1012.03
2022-08-25T12:03:07.377Z,1012.01
2022-08-25T12:04:07.378Z,1011.92
2022-08-25T12:05:08.625Z,1011.94
2022-08-25T12:06:07.383Z,1011.91
2022-08-25T12:07:07.888Z,1011.85